createdAt,value
2022-12-14T00:00:29.340Z,0.00
2022-12-14T00:01:29.279Z,0.00
2022-12-14T00:02:29.441Z,0.00
2022-12-14T00:03:29.299Z,0.00
2022-12-14T00:04:29.255Z,0.00
2022-12-14T00:05:29.232Z,0.00
2022-12-14T00:06:29.235Z,0.00
2022-12-14T00:07:29.216Z,0.00
2022-12-14T00:08:29.555Z,0.00
2022-12-14T00:09:29.180Z,0.00
2022-12-14T00:10:29.191Z,0.00
2022-12-14T00:11:29.170Z,0.00
2022-12-14T00:12:29.153Z,0.00
2022-12-14T00:13:29.137Z,0.00
2022-12-14T00:14:29.136Z,0.00
2022-12-14T00:15:29.174Z,0.00
2022-12-14T00:16:29.113Z,0.00
2022-12-14T00:17:29.105Z,0.00
2022-12-14T00:18:29.626Z,0.00
2022-12-14T00:19:29.065Z,0.00
2022-12-14T00:20:29.059Z,0.00
2022-12-14T00:21:29.030Z,0.00
2022-12-14T00:22:29.042Z,0.00
2022-12-14T00:23:32.063Z,0.00
2022-12-14T00:24:29.007Z,0.00
2022-12-14T00:25:29.004Z,0.00
2022-12-14T00:26:28.998Z,0.00
2022-12-14T00:27:28.954Z,0.00
2022-12-14T00:28:29.342Z,0.00
2022-12-14T00:29:28.913Z,0.00
2022-12-14T00:30:28.944Z,0.00
2022-12-14T00:31:28.954Z,0.00
2022-12-14T00:32:28.897Z,0.00
2022-12-14T00:33:28.890Z,0.00
2022-12-14T00:34:28.868Z,0.00
2022-12-14T00:35:28.847Z,0.00
2022-12-14T00:36:28.881Z,0.00
2022-12-14T00:37:28.857Z,0.00
2022-12-14T00:38:29.203Z,0.00
2022-12-14T00:39:28.776Z,0.00
2022-12-14T00:40:28.803Z,0.00
2022-12-14T00:41:28.795Z,0.00
2022-12-14T00:42:28.778Z,0.00
2022-12-14T00:43:28.738Z,0.00
2022-12-14T00:44:28.744Z,0.00
2022-12-14T00:45:28.719Z,0.00
2022-12-14T00:46:28.752Z,0.00
2022-12-14T00:47:28.737Z,0.00
2022-12-14T00:48:29.164Z,0.00
2022-12-14T00:49:28.655Z,0.00
2022-12-14T00:50:28.677Z,0.00
2022-12-14T00:51:28.631Z,0.00
2022-12-14T00:52:28.655Z,0.00
2022-12-14T00:53:28.614Z,0.00
2022-12-14T00:54:28.616Z,0.00
2022-12-14T00:55:28.578Z,0.00
2022-12-14T00:56:28.612Z,0.00
2022-12-14T00:57:28.551Z,0.00
2022-12-14T00:58:28.933Z,0.00
2022-12-14T00:59:28.542Z,0.00
2022-12-14T01:00:28.541Z,0.00
2022-12-14T01:01:28.594Z,0.00
2022-12-14T01:02:28.619Z,0.00
2022-12-14T01:03:28.959Z,0.00
2022-12-14T01:04:28.526Z,0.00
2022-12-14T01:05:28.453Z,0.00
2022-12-14T01:06:28.474Z,0.00
2022-12-14T01:07:28.443Z,0.00
2022-12-14T01:08:28.432Z,0.00
2022-12-14T01:09:28.449Z,0.00
2022-12-14T01:10:28.417Z,0.00
2022-12-14T01:11:28.362Z,0.00
2022-12-14T01:12:28.396Z,0.00
2022-12-14T01:13:28.871Z,0.00
2022-12-14T01:14:28.385Z,0.00
2022-12-14T01:15:28.327Z,0.00
2022-12-14T01:16:28.393Z,0.00
2022-12-14T01:17:28.299Z,0.00
2022-12-14T01:18:28.306Z,0.00
2022-12-14T01:19:28.283Z,0.00
2022-12-14T01:20:28.274Z,0.00
2022-12-14T01:21:28.258Z,0.00
2022-12-14T01:22:28.275Z,0.00
2022-12-14T01:23:28.787Z,0.00
2022-12-14T01:24:28.237Z,0.00
2022-12-14T01:25:28.202Z,0.00
2022-12-14T01:26:28.218Z,0.00
2022-12-14T01:27:28.176Z,0.00
2022-12-14T01:28:28.175Z,0.00
2022-12-14T01:29:28.148Z,0.00
2022-12-14T01:30:28.151Z,0.00
2022-12-14T01:31:28.227Z,0.00
2022-12-14T01:32:28.124Z,0.00
2022-12-14T01:33:28.566Z,0.00
2022-12-14T01:34:28.093Z,0.00
2022-12-14T01:35:28.069Z,0.00
2022-12-14T01:36:28.065Z,0.00
2022-12-14T01:37:28.054Z,0.00
2022-12-14T01:38:28.050Z,0.00
2022-12-14T01:39:28.027Z,0.00
2022-12-14T01:40:28.021Z,0.00
2022-12-14T01:41:28.012Z,0.00
2022-12-14T01:42:28.002Z,0.00
2022-12-14T01:43:28.523Z,0.00
2022-12-14T01:44:27.986Z,0.00
2022-12-14T01:45:27.935Z,0.00
2022-12-14T01:46:28.022Z,0.00
2022-12-14T01:47:27.896Z,0.00
2022-12-14T01:48:27.948Z,0.00
2022-12-14T01:49:27.899Z,0.00
2022-12-14T01:50:27.901Z,0.00
2022-12-14T01:51:27.868Z,0.00
2022-12-14T01:52:27.863Z,0.00
2022-12-14T01:53:28.437Z,0.00
2022-12-14T01:54:27.847Z,0.00
2022-12-14T01:55:27.830Z,0.00
2022-12-14T01:56:27.836Z,0.00
2022-12-14T01:57:27.772Z,0.00
2022-12-14T01:58:27.806Z,0.00
2022-12-14T01:59:27.758Z,0.00
2022-12-14T02:00:27.759Z,0.00
2022-12-14T02:01:27.828Z,0.00
2022-12-14T02:02:27.880Z,0.00
2022-12-14T02:03:28.282Z,0.00
2022-12-14T02:04:27.714Z,0.00
2022-12-14T02:05:27.675Z,0.00
2022-12-14T02:06:27.692Z,0.00
2022-12-14T02:07:27.644Z,0.00
2022-12-14T02:08:27.689Z,0.00
2022-12-14T02:09:27.637Z,0.00
2022-12-14T02:10:27.625Z,0.00
2022-12-14T02:11:27.603Z,0.00
2022-12-14T02:12:27.606Z,0.00
2022-12-14T02:13:28.121Z,0.00
2022-12-14T02:14:27.652Z,0.00
2022-12-14T02:15:27.546Z,0.00
2022-12-14T02:16:27.599Z,0.00
2022-12-14T02:17:27.533Z,0.00
2022-12-14T02:18:27.496Z,0.00
2022-12-14T02:19:27.532Z,0.00
2022-12-14T02:20:27.473Z,0.00
2022-12-14T02:21:27.499Z,0.00
2022-12-14T02:22:27.456Z,0.00
2022-12-14T02:23:27.886Z,0.00
2022-12-14T02:24:27.441Z,0.00
2022-12-14T02:25:27.448Z,0.00
2022-12-14T02:26:27.432Z,0.00
2022-12-14T02:27:27.403Z,0.00
2022-12-14T02:28:27.383Z,0.00
2022-12-14T02:29:27.378Z,0.00
2022-12-14T02:30:27.348Z,0.00
2022-12-14T02:31:27.389Z,0.00
2022-12-14T02:32:27.331Z,0.00
2022-12-14T02:33:27.661Z,0.00
2022-12-14T02:34:27.287Z,0.00
2022-12-14T02:35:27.303Z,0.00
2022-12-14T02:36:27.276Z,0.00
2022-12-14T02:37:27.281Z,0.00
2022-12-14T02:38:27.262Z,0.00
2022-12-14T02:39:27.258Z,0.00
2022-12-14T02:40:27.254Z,0.00
2022-12-14T02:41:27.231Z,0.00
2022-12-14T02:42:27.190Z,0.00
2022-12-14T02:43:27.729Z,0.00
2022-12-14T02:44:27.158Z,0.00
2022-12-14T02:45:27.184Z,0.00
2022-12-14T02:46:27.195Z,0.00
2022-12-14T02:47:27.158Z,0.00
2022-12-14T02:48:27.124Z,0.00
2022-12-14T02:49:27.138Z,0.00
2022-12-14T02:50:27.082Z,0.00
2022-12-14T02:51:27.107Z,0.00
2022-12-14T02:52:27.062Z,0.00
2022-12-14T02:53:27.440Z,0.00
2022-12-14T02:54:27.050Z,0.00
2022-12-14T02:55:27.037Z,0.00
2022-12-14T02:56:27.006Z,0.00
2022-12-14T02:57:27.019Z,0.00
2022-12-14T02:58:26.994Z,0.00
2022-12-14T02:59:27.010Z,0.00
2022-12-14T03:00:26.954Z,0.00
2022-12-14T03:01:27.151Z,0.00
2022-12-14T03:02:27.029Z,0.00
2022-12-14T03:03:27.321Z,0.00
2022-12-14T03:04:26.916Z,0.00
2022-12-14T03:05:26.910Z,0.00
2022-12-14T03:06:26.885Z,0.00
2022-12-14T03:07:26.889Z,0.00
2022-12-14T03:08:26.853Z,0.00
2022-12-14T03:09:26.872Z,0.00
2022-12-14T03:10:26.843Z,0.00
2022-12-14T03:11:26.844Z,0.00
2022-12-14T03:12:26.809Z,0.00
2022-12-14T03:13:27.135Z,0.00
2022-12-14T03:14:26.778Z,0.00
2022-12-14T03:15:26.820Z,0.00
2022-12-14T03:16:26.815Z,0.00
2022-12-14T03:17:26.780Z,0.00
2022-12-14T03:18:26.720Z,0.00
2022-12-14T03:19:26.751Z,0.00
2022-12-14T03:20:26.696Z,0.00
2022-12-14T03:21:26.725Z,0.00
2022-12-14T03:22:26.676Z,0.00
2022-12-14T03:23:26.985Z,0.00
2022-12-14T03:24:26.644Z,0.00
2022-12-14T03:25:26.661Z,0.00
2022-12-14T03:26:26.637Z,0.00
2022-12-14T03:27:26.622Z,0.00
2022-12-14T03:28:26.593Z,0.00
2022-12-14T03:29:26.609Z,0.00
2022-12-14T03:30:58.070Z,0.00
2022-12-14T03:31:26.670Z,0.00
2022-12-14T03:32:26.570Z,0.00
2022-12-14T03:33:26.933Z,0.00
2022-12-14T03:34:26.526Z,0.00
2022-12-14T03:35:26.534Z,0.00
2022-12-14T03:36:26.500Z,0.00
2022-12-14T03:37:26.513Z,0.00
2022-12-14T03:38:26.459Z,0.00
2022-12-14T03:39:26.483Z,0.00
2022-12-14T03:40:26.449Z,0.00
2022-12-14T03:41:26.449Z,0.00
2022-12-14T03:42:26.439Z,0.00
2022-12-14T03:43:26.847Z,0.00
2022-12-14T03:44:26.378Z,0.00
2022-12-14T03:45:26.449Z,0.00
2022-12-14T03:46:26.363Z,0.00
2022-12-14T03:47:26.372Z,0.00
2022-12-14T03:48:26.410Z,0.00
2022-12-14T03:49:26.357Z,0.00
2022-12-14T03:50:26.301Z,0.00
2022-12-14T03:51:26.351Z,0.00
2022-12-14T03:52:26.299Z,0.00
2022-12-14T03:53:26.652Z,0.00
2022-12-14T03:54:26.251Z,0.00
2022-12-14T03:55:26.289Z,0.00
2022-12-14T03:56:26.233Z,0.00
2022-12-14T03:57:26.243Z,0.00
2022-12-14T03:58:26.212Z,0.00
2022-12-14T03:59:26.212Z,0.00
2022-12-14T04:00:26.178Z,0.00
2022-12-14T04:01:26.354Z,0.00
2022-12-14T04:02:26.285Z,0.00
2022-12-14T04:03:26.651Z,0.00
2022-12-14T04:04:26.122Z,0.00
2022-12-14T04:05:26.129Z,0.00
2022-12-14T04:06:26.114Z,0.00
2022-12-14T04:07:26.105Z,0.00
2022-12-14T04:08:26.081Z,0.00
2022-12-14T04:09:26.090Z,0.00
2022-12-14T04:10:26.035Z,0.00
2022-12-14T04:11:26.069Z,0.00
2022-12-14T04:12:26.035Z,0.00
2022-12-14T04:13:26.377Z,0.00
2022-12-14T04:14:25.991Z,0.00
2022-12-14T04:15:25.996Z,0.00
2022-12-14T04:16:26.063Z,0.00
2022-12-14T04:17:25.971Z,0.00
2022-12-14T04:18:25.953Z,0.00
2022-12-14T04:19:25.953Z,0.00
2022-12-14T04:20:25.910Z,0.00
2022-12-14T04:21:25.949Z,0.00
2022-12-14T04:22:25.909Z,0.00
2022-12-14T04:23:26.211Z,0.00
2022-12-14T04:24:25.863Z,0.00
2022-12-14T04:25:25.867Z,0.00
2022-12-14T04:26:25.837Z,0.00
2022-12-14T04:27:25.866Z,0.00
2022-12-14T04:28:25.814Z,0.00
2022-12-14T04:29:25.814Z,0.00
2022-12-14T04:30:25.782Z,0.00
2022-12-14T04:31:25.806Z,0.00
2022-12-14T04:32:25.858Z,0.00
2022-12-14T04:33:26.243Z,0.00
2022-12-14T04:34:25.728Z,0.00
2022-12-14T04:35:25.739Z,0.00
2022-12-14T04:36:25.715Z,0.00
2022-12-14T04:37:25.722Z,0.00
2022-12-14T04:38:25.686Z,0.00
2022-12-14T04:39:25.738Z,0.00
2022-12-14T04:40:25.660Z,0.00
2022-12-14T04:41:25.665Z,0.00
2022-12-14T04:42:25.623Z,0.00
2022-12-14T04:43:26.072Z,0.00
2022-12-14T04:44:25.633Z,0.00
2022-12-14T04:45:25.619Z,0.00
2022-12-14T04:46:25.576Z,0.00
2022-12-14T04:47:25.582Z,0.00
2022-12-14T04:48:25.614Z,0.00
2022-12-14T04:49:25.545Z,0.00
2022-12-14T04:50:25.568Z,0.00
2022-12-14T04:51:25.504Z,0.00
2022-12-14T04:52:25.510Z,0.00
2022-12-14T04:53:26.033Z,0.00
2022-12-14T04:54:25.501Z,0.00
2022-12-14T04:55:25.477Z,0.00
2022-12-14T04:56:25.476Z,0.00
2022-12-14T04:57:25.438Z,0.00
2022-12-14T04:58:25.448Z,0.00
2022-12-14T04:59:25.426Z,0.00
2022-12-14T05:00:25.411Z,0.00
2022-12-14T05:01:25.517Z,0.00
2022-12-14T05:02:25.597Z,0.00
2022-12-14T05:03:25.793Z,0.00
2022-12-14T05:04:25.386Z,0.00
2022-12-14T05:05:25.332Z,0.00
2022-12-14T05:06:25.350Z,0.00
2022-12-14T05:07:25.296Z,0.00
2022-12-14T05:08:25.303Z,0.00
2022-12-14T05:09:25.294Z,0.00
2022-12-14T05:10:25.296Z,0.00
2022-12-14T05:11:53.155Z,0.00
2022-12-14T05:12:25.265Z,0.00
2022-12-14T05:13:25.701Z,0.00
2022-12-14T05:14:25.243Z,0.00
2022-12-14T05:15:25.197Z,0.00
2022-12-14T05:16:25.252Z,0.00
2022-12-14T05:17:25.168Z,0.00
2022-12-14T05:18:25.256Z,0.00
2022-12-14T05:19:25.139Z,0.00
2022-12-14T05:20:25.168Z,0.00
2022-12-14T05:21:25.201Z,0.00
2022-12-14T05:22:25.129Z,0.00
2022-12-14T05:23:25.374Z,0.00
2022-12-14T05:24:25.127Z,0.00
2022-12-14T05:25:25.088Z,0.00
2022-12-14T05:26:25.081Z,0.00
2022-12-14T05:27:25.047Z,0.00
2022-12-14T05:28:25.125Z,0.00
2022-12-14T05:29:25.012Z,0.00
2022-12-14T05:30:25.096Z,0.00
2022-12-14T05:31:24.996Z,0.00
2022-12-14T05:32:25.003Z,0.00
2022-12-14T05:33:25.345Z,0.00
2022-12-14T05:34:24.974Z,0.00
2022-12-14T05:35:24.954Z,0.00
2022-12-14T05:36:24.945Z,0.00
2022-12-14T05:37:24.905Z,0.00
2022-12-14T05:38:24.939Z,0.00
2022-12-14T05:39:24.905Z,0.00
2022-12-14T05:40:24.920Z,0.00
2022-12-14T05:41:24.902Z,0.00
2022-12-14T05:42:24.893Z,0.00
2022-12-14T05:43:25.274Z,0.00
2022-12-14T05:44:24.860Z,0.00
2022-12-14T05:45:24.809Z,0.00
2022-12-14T05:46:24.862Z,0.00
2022-12-14T05:47:24.806Z,0.00
2022-12-14T05:48:24.788Z,0.00
2022-12-14T05:49:24.762Z,0.00
2022-12-14T05:50:24.816Z,0.00
2022-12-14T05:51:24.775Z,0.00
2022-12-14T05:52:24.766Z,0.00
2022-12-14T05:53:24.949Z,0.00
2022-12-14T05:54:24.731Z,0.00
2022-12-14T05:55:24.744Z,0.00
2022-12-14T05:56:24.684Z,0.00
2022-12-14T05:57:24.656Z,0.00
2022-12-14T05:58:24.674Z,0.00
2022-12-14T05:59:24.621Z,0.00
2022-12-14T06:00:24.651Z,0.00
2022-12-14T06:01:24.684Z,0.00
2022-12-14T06:02:24.773Z,0.00
2022-12-14T06:03:24.869Z,0.00
2022-12-14T06:04:24.659Z,0.00
2022-12-14T06:05:24.602Z,0.00
2022-12-14T06:06:24.570Z,0.00
2022-12-14T06:07:28.126Z,0.00
2022-12-14T06:08:24.535Z,0.00
2022-12-14T06:09:24.508Z,0.00
2022-12-14T06:10:24.536Z,0.00
2022-12-14T06:11:24.478Z,0.00
2022-12-14T06:12:24.494Z,0.00
2022-12-14T06:13:24.716Z,0.00
2022-12-14T06:14:24.456Z,0.00
2022-12-14T06:15:26.270Z,0.00
2022-12-14T06:16:24.577Z,0.00
2022-12-14T06:17:24.429Z,0.00
2022-12-14T06:18:24.445Z,0.00
2022-12-14T06:19:24.368Z,0.00
2022-12-14T06:20:24.393Z,0.00
2022-12-14T06:21:24.351Z,0.00
2022-12-14T06:22:24.366Z,0.00
2022-12-14T06:23:24.648Z,0.00
2022-12-14T06:24:24.350Z,0.00
2022-12-14T06:25:24.286Z,0.00
2022-12-14T06:26:24.311Z,0.00
2022-12-14T06:27:24.267Z,0.00
2022-12-14T06:28:24.282Z,0.00
2022-12-14T06:29:24.236Z,0.00
2022-12-14T06:30:24.284Z,0.00
2022-12-14T06:31:24.238Z,0.00
2022-12-14T06:32:24.203Z,0.00
2022-12-14T06:33:24.335Z,0.00
2022-12-14T06:34:28.441Z,0.00
2022-12-14T06:35:24.200Z,0.00
2022-12-14T06:36:24.152Z,0.00
2022-12-14T06:37:24.152Z,0.00
2022-12-14T06:38:24.145Z,0.00
2022-12-14T06:39:24.122Z,0.00
2022-12-14T06:40:24.108Z,0.00
2022-12-14T06:41:24.119Z,0.00
2022-12-14T06:42:24.083Z,0.00
2022-12-14T06:43:24.360Z,0.00
2022-12-14T06:44:24.071Z,0.00
2022-12-14T06:45:24.057Z,0.00
2022-12-14T06:46:24.040Z,0.00
2022-12-14T06:47:24.054Z,0.00
2022-12-14T06:48:23.990Z,0.00
2022-12-14T06:49:24.052Z,0.00
2022-12-14T06:50:23.954Z,0.00
2022-12-14T06:51:23.975Z,0.00
2022-12-14T06:52:26.988Z,0.00
2022-12-14T06:53:23.974Z,0.00
2022-12-14T06:54:23.925Z,0.00
2022-12-14T06:55:23.915Z,0.00
2022-12-14T06:56:23.897Z,0.00
2022-12-14T06:57:23.932Z,0.00
2022-12-14T06:58:26.828Z,0.00
2022-12-14T06:59:23.877Z,0.00
2022-12-14T07:00:23.840Z,0.00
2022-12-14T07:01:24.005Z,0.00
2022-12-14T07:02:24.025Z,0.00
2022-12-14T07:03:23.845Z,0.00
2022-12-14T07:04:23.800Z,0.00
2022-12-14T07:05:23.797Z,0.00
2022-12-14T07:06:23.763Z,0.00
2022-12-14T07:07:23.802Z,0.00
2022-12-14T07:08:23.734Z,0.00
2022-12-14T07:09:23.786Z,0.00
2022-12-14T07:10:23.704Z,0.00
2022-12-14T07:11:23.719Z,0.00
2022-12-14T07:12:23.714Z,0.00
2022-12-14T07:13:23.694Z,0.00
2022-12-14T07:14:23.669Z,0.00
2022-12-14T07:15:23.665Z,0.00
2022-12-14T07:16:23.674Z,4.00
2022-12-14T07:17:23.658Z,4.00
2022-12-14T07:18:23.612Z,4.00
2022-12-14T07:19:23.606Z,0.00
2022-12-14T07:20:23.575Z,0.00
2022-12-14T07:21:23.593Z,4.00
2022-12-14T07:22:23.591Z,4.00
2022-12-14T07:23:27.851Z,0.00
2022-12-14T07:24:23.531Z,0.00
2022-12-14T07:25:23.545Z,0.00
2022-12-14T07:26:23.496Z,0.00
2022-12-14T07:27:23.518Z,4.00
2022-12-14T07:28:23.501Z,0.00
2022-12-14T07:29:23.512Z,4.00
2022-12-14T07:30:23.470Z,4.00
2022-12-14T07:31:23.542Z,4.00
2022-12-14T07:32:23.460Z,4.00
2022-12-14T07:33:23.449Z,4.00
2022-12-14T07:34:23.404Z,4.00
2022-12-14T07:35:23.405Z,4.00
2022-12-14T07:36:23.370Z,4.00
2022-12-14T07:37:23.415Z,4.00
2022-12-14T07:38:23.350Z,4.00
2022-12-14T07:39:23.378Z,0.00
2022-12-14T07:40:23.318Z,0.00
2022-12-14T07:41:23.715Z,0.00
2022-12-14T07:42:23.307Z,0.00
2022-12-14T07:43:23.319Z,0.00
2022-12-14T07:44:23.281Z,4.00
2022-12-14T07:45:23.305Z,0.00
2022-12-14T07:46:23.321Z,4.00
2022-12-14T07:47:23.260Z,4.00
2022-12-14T07:48:23.226Z,4.00
2022-12-14T07:49:23.227Z,4.00
2022-12-14T07:50:23.208Z,4.00
2022-12-14T07:51:23.190Z,4.00
2022-12-14T07:52:23.153Z,4.00
2022-12-14T07:53:23.183Z,4.00
2022-12-14T07:54:23.138Z,4.00
2022-12-14T07:55:23.163Z,4.00
2022-12-14T07:56:23.098Z,4.00
2022-12-14T07:57:23.118Z,4.00
2022-12-14T07:58:23.088Z,4.00
2022-12-14T07:59:23.129Z,8.00
2022-12-14T08:00:23.081Z,4.00
2022-12-14T08:01:23.360Z,4.00
2022-12-14T08:02:23.105Z,8.00
2022-12-14T08:03:23.051Z,8.00
2022-12-14T08:04:23.105Z,8.00
2022-12-14T08:05:23.019Z,4.00
2022-12-14T08:06:22.987Z,8.00
2022-12-14T08:07:23.001Z,4.00
2022-12-14T08:08:22.991Z,8.00
2022-12-14T08:09:22.969Z,8.00
2022-12-14T08:10:22.971Z,8.00
2022-12-14T08:11:22.950Z,8.00
2022-12-14T08:12:22.939Z,12.00
2022-12-14T08:13:22.914Z,8.00
2022-12-14T08:14:22.917Z,8.00
2022-12-14T08:15:22.895Z,8.00
2022-12-14T08:16:22.899Z,8.00
2022-12-14T08:17:22.888Z,8.00
2022-12-14T08:18:22.841Z,8.00
2022-12-14T08:19:22.841Z,8.00
2022-12-14T08:20:22.842Z,12.00
2022-12-14T08:21:22.815Z,12.00
2022-12-14T08:22:22.778Z,16.00
2022-12-14T08:23:22.814Z,12.00
2022-12-14T08:24:22.778Z,16.00
2022-12-14T08:25:22.772Z,16.00
2022-12-14T08:26:22.742Z,16.00
2022-12-14T08:27:22.721Z,16.00
2022-12-14T08:28:22.707Z,16.00
2022-12-14T08:29:22.721Z,16.00
2022-12-14T08:30:22.684Z,20.00
2022-12-14T08:31:22.731Z,16.00
2022-12-14T08:32:22.640Z,20.00
2022-12-14T08:33:22.709Z,20.00
2022-12-14T08:34:22.734Z,20.00
2022-12-14T08:35:22.642Z,20.00
2022-12-14T08:36:22.622Z,24.00
2022-12-14T08:37:22.605Z,24.00
2022-12-14T08:38:22.548Z,28.00
2022-12-14T08:39:22.589Z,28.00
2022-12-14T08:40:22.563Z,28.00
2022-12-14T08:41:22.552Z,32.00
2022-12-14T08:42:22.526Z,32.00
2022-12-14T08:43:25.076Z,32.00
2022-12-14T08:44:22.538Z,36.00
2022-12-14T08:45:22.526Z,36.00
2022-12-14T08:46:22.649Z,36.00
2022-12-14T08:47:22.478Z,36.00
2022-12-14T08:48:22.436Z,36.00
2022-12-14T08:49:25.328Z,36.00
2022-12-14T08:50:22.437Z,32.00
2022-12-14T08:51:22.435Z,28.00
2022-12-14T08:52:22.402Z,24.00
2022-12-14T08:53:22.423Z,24.00
2022-12-14T08:54:22.396Z,24.00
2022-12-14T08:55:27.516Z,24.00
2022-12-14T08:56:22.342Z,24.00
2022-12-14T08:57:22.364Z,20.00
2022-12-14T08:58:23.161Z,20.00
2022-12-14T08:59:51.924Z,16.00
2022-12-14T09:00:22.303Z,20.00
2022-12-14T09:01:25.734Z,20.00
2022-12-14T09:02:22.472Z,20.00
2022-12-14T09:03:22.315Z,20.00
2022-12-14T09:04:22.228Z,20.00
2022-12-14T09:05:22.273Z,24.00
2022-12-14T09:06:22.210Z,24.00
2022-12-14T09:07:22.268Z,24.00
2022-12-14T09:08:22.180Z,24.00
2022-12-14T09:09:22.186Z,24.00
2022-12-14T09:10:22.162Z,24.00
2022-12-14T09:11:22.188Z,28.00
2022-12-14T09:12:22.162Z,32.00
2022-12-14T09:13:22.137Z,32.00
2022-12-14T09:14:22.126Z,32.00
2022-12-14T09:15:22.096Z,32.00
2022-12-14T09:16:22.192Z,36.00
2022-12-14T09:17:22.090Z,32.00
2022-12-14T09:18:22.059Z,32.00
2022-12-14T09:19:22.046Z,32.00
2022-12-14T09:20:22.110Z,28.00
2022-12-14T09:21:22.031Z,24.00
2022-12-14T09:22:22.107Z,24.00
2022-12-14T09:23:22.005Z,28.00
2022-12-14T09:24:21.959Z,28.00
2022-12-14T09:25:22.002Z,28.00
2022-12-14T09:26:21.937Z,32.00
2022-12-14T09:27:21.968Z,28.00
2022-12-14T09:28:21.934Z,28.00
2022-12-14T09:29:21.951Z,32.00
2022-12-14T09:30:26.638Z,32.00
2022-12-14T09:31:21.985Z,36.00
2022-12-14T09:32:21.899Z,32.00
2022-12-14T09:33:21.878Z,36.00
2022-12-14T09:34:21.878Z,40.00
2022-12-14T09:35:21.858Z,36.00
2022-12-14T09:36:21.811Z,36.00
2022-12-14T09:37:21.851Z,40.00
2022-12-14T09:38:21.804Z,40.00
2022-12-14T09:39:21.813Z,40.00
2022-12-14T09:40:21.781Z,44.00
2022-12-14T09:41:21.773Z,48.00
2022-12-14T09:42:21.726Z,48.00
2022-12-14T09:43:21.760Z,44.00
2022-12-14T09:44:21.703Z,44.00
2022-12-14T09:45:21.774Z,44.00
2022-12-14T09:46:21.687Z,40.00
2022-12-14T09:47:21.716Z,40.00
2022-12-14T09:48:21.670Z,40.00
2022-12-14T09:49:21.647Z,40.00
2022-12-14T09:50:21.621Z,44.00
2022-12-14T09:51:21.668Z,52.00
2022-12-14T09:52:21.676Z,56.00
2022-12-14T09:53:21.610Z,60.00
2022-12-14T09:54:21.612Z,64.00
2022-12-14T09:55:21.612Z,68.00
2022-12-14T09:56:21.554Z,68.00
2022-12-14T09:57:21.587Z,60.00
2022-12-14T09:58:21.528Z,56.00
2022-12-14T09:59:21.531Z,56.00
2022-12-14T10:00:21.506Z,56.00
2022-12-14T10:01:21.603Z,52.00
2022-12-14T10:02:31.065Z,56.00
2022-12-14T10:03:21.784Z,52.00
2022-12-14T10:04:21.448Z,52.00
2022-12-14T10:05:21.499Z,48.00
2022-12-14T10:06:21.410Z,44.00
2022-12-14T10:07:21.437Z,40.00
2022-12-14T10:08:21.397Z,40.00
2022-12-14T10:09:21.443Z,40.00
2022-12-14T10:10:21.389Z,40.00
2022-12-14T10:11:21.408Z,44.00
2022-12-14T10:12:21.358Z,48.00
2022-12-14T10:13:21.362Z,52.00
2022-12-14T10:14:21.339Z,48.00
2022-12-14T10:15:21.339Z,48.00
2022-12-14T10:16:21.355Z,52.00
2022-12-14T10:17:21.292Z,52.00
2022-12-14T10:18:57.033Z,48.00
2022-12-14T10:19:21.272Z,48.00
2022-12-14T10:20:21.259Z,52.00
2022-12-14T10:21:21.252Z,52.00
2022-12-14T10:22:21.220Z,56.00
2022-12-14T10:23:23.195Z,56.00
2022-12-14T10:24:21.182Z,56.00
2022-12-14T10:25:21.223Z,56.00
2022-12-14T10:26:21.161Z,56.00
2022-12-14T10:27:21.171Z,52.00
2022-12-14T10:28:21.140Z,52.00
2022-12-14T10:29:21.185Z,56.00
2022-12-14T10:30:21.115Z,60.00
2022-12-14T10:31:21.127Z,64.00
2022-12-14T10:32:21.080Z,64.00
2022-12-14T10:33:21.088Z,64.00
2022-12-14T10:34:21.041Z,60.00
2022-12-14T10:35:21.118Z,64.00
2022-12-14T10:36:21.040Z,68.00
2022-12-14T10:37:21.038Z,68.00
2022-12-14T10:38:20.994Z,64.00
2022-12-14T10:39:21.024Z,60.00
2022-12-14T10:40:31.169Z,60.00
2022-12-14T10:41:20.991Z,60.00
2022-12-14T10:42:20.937Z,60.00
2022-12-14T10:43:20.952Z,56.00
2022-12-14T10:44:20.927Z,52.00
2022-12-14T10:46:20.933Z,48.00
2022-12-14T10:47:20.920Z,52.00
2022-12-14T10:48:20.995Z,56.00
2022-12-14T10:49:20.867Z,60.00
2022-12-14T10:50:20.883Z,56.00
2022-12-14T10:51:20.938Z,56.00
2022-12-14T10:52:20.867Z,56.00
2022-12-14T10:53:20.829Z,52.00
2022-12-14T10:54:20.831Z,52.00
2022-12-14T10:55:20.814Z,52.00
2022-12-14T10:56:20.852Z,56.00
2022-12-14T10:57:20.777Z,64.00
2022-12-14T10:58:20.797Z,64.00
2022-12-14T10:59:20.741Z,68.00
2022-12-14T11:00:24.077Z,80.00
2022-12-14T11:01:20.797Z,84.00
2022-12-14T11:02:20.997Z,88.00
2022-12-14T11:03:20.776Z,96.00
2022-12-14T11:04:20.687Z,108.00
2022-12-14T11:05:20.653Z,116.00
2022-12-14T11:06:20.686Z,116.00
2022-12-14T11:07:20.616Z,108.00
2022-12-14T11:08:20.650Z,100.00
2022-12-14T11:09:20.618Z,92.00
2022-12-14T11:10:20.627Z,88.00
2022-12-14T11:11:20.705Z,84.00
2022-12-14T11:12:20.678Z,80.00
2022-12-14T11:13:20.562Z,76.00
2022-12-14T11:14:20.575Z,72.00
2022-12-14T11:15:20.526Z,68.00
2022-12-14T11:16:20.667Z,64.00
2022-12-14T11:17:20.617Z,64.00
2022-12-14T11:18:20.591Z,60.00
2022-12-14T11:19:20.501Z,60.00
2022-12-14T11:20:20.491Z,68.00
2022-12-14T11:21:20.467Z,76.00
2022-12-14T11:22:22.652Z,84.00
2022-12-14T11:23:20.415Z,92.00
2022-12-14T11:24:20.460Z,96.00
2022-12-14T11:25:20.384Z,100.00
2022-12-14T11:26:20.421Z,100.00
2022-12-14T11:27:20.365Z,96.00
2022-12-14T11:28:20.374Z,88.00
2022-12-14T11:29:20.337Z,76.00
2022-12-14T11:30:20.353Z,68.00
2022-12-14T11:31:20.494Z,68.00
2022-12-14T11:32:20.319Z,60.00
2022-12-14T11:33:20.280Z,60.00
2022-12-14T11:34:22.116Z,60.00
2022-12-14T11:35:20.277Z,56.00
2022-12-14T11:36:20.272Z,52.00
2022-12-14T11:37:20.251Z,52.00
2022-12-14T11:38:20.232Z,48.00
2022-12-14T11:39:20.215Z,48.00
2022-12-14T11:40:20.225Z,44.00
2022-12-14T11:41:20.212Z,44.00
2022-12-14T11:42:20.197Z,44.00
2022-12-14T11:43:20.161Z,44.00
2022-12-14T11:44:20.164Z,44.00
2022-12-14T11:45:20.137Z,48.00
2022-12-14T11:46:20.178Z,48.00
2022-12-14T11:47:20.138Z,44.00
2022-12-14T11:48:20.112Z,48.00
2022-12-14T11:49:20.085Z,48.00
2022-12-14T11:50:20.090Z,52.00
2022-12-14T11:51:20.043Z,52.00
2022-12-14T11:52:20.102Z,48.00
2022-12-14T11:53:20.026Z,44.00
2022-12-14T11:54:20.048Z,36.00
2022-12-14T11:55:26.238Z,36.00
2022-12-14T11:56:20.028Z,36.00
2022-12-14T11:57:19.962Z,36.00
2022-12-14T11:58:20.004Z,40.00
2022-12-14T11:59:19.971Z,48.00
2022-12-14T12:00:19.988Z,52.00
2022-12-14T12:01:19.980Z,52.00
2022-12-14T12:02:19.972Z,52.00
2022-12-14T12:03:19.949Z,52.00
2022-12-14T12:04:19.958Z,52.00
2022-12-14T12:05:19.872Z,48.00
2022-12-14T12:06:19.912Z,48.00
2022-12-14T12:07:19.835Z,44.00
2022-12-14T12:08:19.879Z,36.00
2022-12-14T12:09:19.825Z,36.00
2022-12-14T12:10:19.845Z,32.00
2022-12-14T12:11:19.810Z,32.00
2022-12-14T12:12:19.807Z,36.00
2022-12-14T12:13:19.790Z,32.00
2022-12-14T12:14:19.785Z,28.00
2022-12-14T12:15:19.746Z,32.00
2022-12-14T12:16:19.898Z,28.00
2022-12-14T12:17:19.737Z,28.00
2022-12-14T12:18:19.751Z,28.00
2022-12-14T12:19:19.719Z,28.00
2022-12-14T12:20:19.829Z,28.00
2022-12-14T12:21:19.709Z,24.00
2022-12-14T12:22:19.674Z,28.00
2022-12-14T12:23:19.623Z,32.00
2022-12-14T12:24:19.660Z,32.00
2022-12-14T12:25:30.741Z,40.00
2022-12-14T12:26:19.657Z,44.00
2022-12-14T12:27:19.584Z,36.00
2022-12-14T12:28:19.586Z,32.00
2022-12-14T12:29:19.659Z,32.00
2022-12-14T12:30:19.598Z,40.00
2022-12-14T12:31:19.571Z,44.00
2022-12-14T12:32:19.559Z,48.00
2022-12-14T12:33:19.515Z,52.00
2022-12-14T12:34:19.534Z,56.00
2022-12-14T12:35:19.483Z,56.00
2022-12-14T12:36:23.749Z,56.00
2022-12-14T12:37:27.726Z,60.00
2022-12-14T12:38:19.483Z,64.00
2022-12-14T12:39:19.502Z,64.00
2022-12-14T12:40:19.451Z,60.00
2022-12-14T12:41:19.397Z,56.00
2022-12-14T12:42:19.434Z,52.00
2022-12-14T12:43:19.386Z,44.00
2022-12-14T12:44:19.380Z,44.00
2022-12-14T12:45:19.376Z,40.00
2022-12-14T12:46:19.434Z,44.00
2022-12-14T12:47:32.385Z,52.00
2022-12-14T12:48:19.352Z,52.00
2022-12-14T12:49:19.310Z,52.00
2022-12-14T12:50:19.340Z,52.00
2022-12-14T12:51:19.282Z,56.00
2022-12-14T12:52:19.309Z,60.00
2022-12-14T12:53:19.378Z,72.00
2022-12-14T12:54:19.255Z,76.00
2022-12-14T12:55:19.215Z,84.00
2022-12-14T12:56:19.224Z,84.00
2022-12-14T12:57:19.232Z,88.00
2022-12-14T12:58:19.221Z,88.00
2022-12-14T12:59:19.160Z,80.00
2022-12-14T13:00:19.184Z,76.00
2022-12-14T13:01:19.317Z,80.00
2022-12-14T13:02:19.424Z,72.00
2022-12-14T13:03:19.303Z,68.00
2022-12-14T13:04:19.143Z,64.00
2022-12-14T13:06:19.116Z,60.00
2022-12-14T13:07:19.075Z,56.00
2022-12-14T13:08:19.090Z,52.00
2022-12-14T13:09:19.063Z,52.00
2022-12-14T13:10:19.061Z,48.00